createdAt,value
2018-01-07T00:03:34.964Z,5.30
2018-01-07T00:08:37.721Z,5.40
2018-01-07T00:13:40.457Z,5.30
2018-01-07T00:18:43.591Z,5.30
2018-01-07T00:23:46.372Z,5.30
2018-01-07T00:28:49.784Z,5.20
2018-01-07T00:33:52.474Z,5.30
2018-01-07T00:38:56.566Z,5.00
2018-01-07T00:43:59.187Z,5.00
2018-01-07T00:49:02.220Z,5.10
2018-01-07T00:54:04.829Z,5.00
2018-01-07T00:59:07.912Z,5.00
2018-01-07T01:04:10.583Z,5.00
2018-01-07T01:09:13.530Z,5.00
2018-01-07T01:14:16.150Z,4.90
2018-01-07T01:19:19.551Z,4.80
2018-01-07T01:24:22.186Z,4.80
2018-01-07T01:29:24.889Z,4.80
2018-01-07T01:34:27.568Z,4.70
2018-01-07T01:39:30.272Z,4.80
2018-01-07T01:44:32.905Z,4.60
2018-01-07T01:49:36.121Z,4.70
2018-01-07T01:54:38.883Z,4.60
2018-01-07T01:59:42.300Z,4.60
2018-01-07T02:04:44.985Z,4.60
2018-01-07T02:09:48.116Z,4.60
2018-01-07T02:14:50.886Z,4.50
2018-01-07T02:19:54.737Z,4.50
2018-01-07T02:24:57.430Z,4.50
2018-01-07T02:30:02.715Z,4.30
2018-01-07T02:35:05.326Z,4.30
2018-01-07T02:40:08.227Z,4.40
2018-01-07T02:45:10.884Z,4.40
2018-01-07T02:50:13.574Z,4.30
2018-01-07T02:55:17.022Z,4.10
2018-01-07T03:00:20.211Z,4.10
2018-01-07T03:05:22.876Z,4.00
2018-01-07T03:10:25.522Z,4.10
2018-01-07T03:15:28.181Z,4.00
2018-01-07T03:20:31.068Z,3.90
2018-01-07T03:25:33.683Z,3.80
2018-01-07T03:30:36.592Z,3.90
2018-01-07T03:35:40.035Z,3.80
2018-01-07T03:40:43.049Z,3.80
2018-01-07T03:45:45.751Z,3.70
2018-01-07T03:50:48.873Z,3.60
2018-01-07T03:55:51.526Z,3.60
2018-01-07T04:00:55.502Z,3.40
2018-01-07T04:05:58.161Z,3.40
2018-01-07T04:11:01.721Z,3.30
2018-01-07T04:16:04.373Z,3.20
2018-01-07T04:21:08.327Z,3.50
2018-01-07T04:26:11.032Z,3.40
2018-01-07T04:31:14.144Z,3.20
2018-01-07T04:36:16.843Z,3.20
2018-01-07T04:41:19.976Z,3.20
2018-01-07T04:46:22.671Z,3.20
2018-01-07T04:51:25.465Z,3.10
2018-01-07T04:56:28.084Z,3.30
2018-01-07T05:01:31.678Z,3.10
2018-01-07T05:06:34.474Z,3.20
2018-01-07T05:11:38.129Z,3.10
2018-01-07T05:16:40.745Z,3.00
2018-01-07T05:21:44.033Z,3.00
2018-01-07T05:26:46.714Z,2.90
2018-01-07T05:31:49.898Z,2.80
2018-01-07T05:36:52.582Z,2.90
2018-01-07T05:41:55.293Z,2.90
2018-01-07T05:46:58.724Z,2.80
2018-01-07T05:52:03.045Z,2.70
2018-01-07T05:57:06.443Z,2.70
2018-01-07T06:02:09.125Z,2.70
2018-01-07T06:07:11.817Z,2.70
2018-01-07T06:12:14.822Z,2.70
2018-01-07T06:17:17.447Z,2.60
2018-01-07T06:22:21.076Z,2.70
2018-01-07T06:27:24.518Z,2.60
2018-01-07T06:32:28.032Z,2.60
2018-01-07T06:37:30.683Z,2.70
2018-01-07T06:42:33.426Z,2.70
2018-01-07T06:47:36.343Z,2.60
2018-01-07T06:52:40.205Z,2.50
2018-01-07T06:57:42.823Z,2.50
2018-01-07T07:02:45.810Z,2.50
2018-01-07T07:07:49.102Z,2.60
2018-01-07T07:12:52.983Z,2.50
2018-01-07T07:17:55.639Z,2.50
2018-01-07T07:22:58.722Z,2.60
2018-01-07T07:28:02.154Z,2.60
2018-01-07T07:33:06.503Z,2.70
2018-01-07T07:38:09.147Z,2.70
2018-01-07T07:43:12.729Z,2.60
2018-01-07T07:48:15.424Z,2.70
2018-01-07T07:53:18.124Z,2.60
2018-01-07T07:58:20.757Z,2.60
2018-01-07T08:03:23.859Z,2.60
2018-01-07T08:08:26.471Z,2.60
2018-01-07T08:13:29.254Z,2.60
2018-01-07T08:18:32.639Z,2.50
2018-01-07T08:23:36.185Z,2.60
2018-01-07T08:28:39.833Z,2.70
2018-01-07T08:33:44.342Z,2.70
2018-01-07T08:38:47.342Z,2.70
2018-01-07T08:43:50.261Z,2.80
2018-01-07T08:48:52.891Z,2.70
2018-01-07T08:53:56.467Z,2.70
2018-01-07T08:58:59.110Z,2.70
2018-01-07T09:04:02.197Z,2.70
2018-01-07T09:09:04.858Z,2.70
2018-01-07T09:14:09.230Z,2.70
2018-01-07T09:19:12.021Z,2.60
2018-01-07T09:24:15.552Z,2.70
2018-01-07T09:29:18.178Z,2.70
2018-01-07T09:34:21.265Z,2.80
2018-01-07T09:39:23.915Z,2.80
2018-01-07T09:44:26.930Z,2.80
2018-01-07T09:49:30.313Z,2.90
2018-01-07T09:54:33.675Z,2.90
2018-01-07T09:59:37.099Z,3.10
2018-01-07T10:04:40.386Z,3.00
2018-01-07T10:09:43.933Z,3.10
2018-01-07T10:14:47.588Z,3.10
2018-01-07T10:19:50.198Z,3.10
2018-01-07T10:24:53.513Z,2.90
2018-01-07T10:29:56.220Z,3.10
2018-01-07T10:34:59.557Z,3.10
2018-01-07T10:40:02.179Z,3.30
2018-01-07T10:45:06.125Z,3.10
2018-01-07T10:50:09.703Z,3.10
2018-01-07T10:55:14.483Z,3.20
2018-01-07T11:00:17.267Z,3.10
2018-01-07T11:05:20.957Z,3.20
2018-01-07T11:10:24.330Z,3.10
2018-01-07T11:15:27.886Z,3.20
2018-01-07T11:20:30.560Z,3.30
2018-01-07T11:25:33.975Z,3.20
2018-01-07T11:30:36.781Z,3.20
2018-01-07T11:35:39.752Z,3.20
2018-01-07T11:40:43.262Z,3.30
2018-01-07T11:45:47.411Z,3.20
2018-01-07T11:50:50.845Z,3.40
2018-01-07T11:55:54.367Z,3.40
2018-01-07T12:00:57.054Z,3.40
2018-01-07T12:06:01.000Z,3.30
2018-01-07T12:11:03.900Z,3.30
2018-01-07T12:16:08.076Z,3.30
2018-01-07T12:21:11.411Z,3.50
2018-01-07T12:26:15.809Z,3.50
2018-01-07T12:31:18.619Z,3.50
2018-01-07T12:36:22.164Z,3.50
2018-01-07T12:41:24.869Z,3.40
2018-01-07T12:46:29.541Z,3.40
2018-01-07T12:51:32.280Z,3.40
2018-01-07T12:56:36.420Z,3.40
2018-01-07T13:01:41.021Z,3.40
2018-01-07T13:06:44.608Z,3.40
2018-01-07T13:11:48.086Z,3.50
2018-01-07T13:16:51.182Z,3.50
2018-01-07T13:21:54.001Z,3.50
2018-01-07T13:26:58.007Z,3.60
2018-01-07T13:32:01.135Z,3.60
2018-01-07T13:37:06.708Z,3.70
2018-01-07T13:42:12.096Z,3.70
2018-01-07T13:47:16.405Z,3.70
2018-01-07T13:52:19.725Z,3.60
2018-01-07T13:57:24.669Z,3.60
2018-01-07T14:02:28.821Z,3.60
2018-01-07T14:07:31.915Z,3.50
2018-01-07T14:12:35.892Z,3.50
2018-01-07T14:17:39.175Z,3.50
2018-01-07T14:22:41.959Z,3.40
2018-01-07T14:27:45.045Z,3.40
2018-01-07T14:32:48.814Z,3.30
2018-01-07T14:37:51.760Z,3.30
2018-01-07T14:42:54.849Z,3.30
2018-01-07T14:47:58.222Z,3.30
2018-01-07T14:53:01.616Z,3.20
2018-01-07T14:58:05.246Z,3.20
2018-01-07T15:03:08.293Z,3.20
2018-01-07T15:08:11.193Z,3.20
2018-01-07T15:13:14.190Z,3.10
2018-01-07T15:18:18.975Z,3.10
2018-01-07T15:23:22.124Z,3.10
2018-01-07T15:28:26.171Z,3.00
2018-01-07T15:33:29.699Z,3.00
2018-01-07T15:38:32.607Z,3.00
2018-01-07T15:43:35.309Z,3.00
2018-01-07T15:48:39.623Z,3.10
2018-01-07T15:53:43.611Z,3.00
2018-01-07T15:58:46.988Z,3.00
2018-01-07T16:03:49.632Z,3.00
2018-01-07T16:08:53.518Z,3.00
2018-01-07T16:13:56.517Z,2.90
2018-01-07T16:19:00.229Z,2.90
2018-01-07T16:24:03.711Z,2.80
2018-01-07T16:29:06.950Z,2.80
2018-01-07T16:34:10.400Z,2.70
2018-01-07T16:39:14.164Z,2.70
2018-01-07T16:44:16.864Z,2.70
2018-01-07T16:49:20.541Z,2.60
2018-01-07T16:54:23.248Z,2.50
2018-01-07T16:59:27.276Z,2.30
2018-01-07T17:04:29.959Z,2.30
2018-01-07T17:09:34.204Z,2.30
2018-01-07T17:14:36.913Z,2.30
2018-01-07T17:19:40.336Z,2.20
2018-01-07T17:24:43.138Z,2.20
2018-01-07T17:29:46.728Z,2.20
2018-01-07T17:34:50.202Z,2.10
2018-01-07T17:39:52.981Z,2.10
2018-01-07T17:44:56.310Z,2.00
2018-01-07T17:49:59.760Z,2.00
2018-01-07T17:55:02.526Z,1.90
2018-01-07T18:00:06.255Z,1.80
2018-01-07T18:05:09.468Z,1.70
2018-01-07T18:10:12.579Z,1.70
2018-01-07T18:15:15.399Z,1.50
2018-01-07T18:20:19.297Z,1.40
2018-01-07T18:25:22.090Z,1.40
2018-01-07T18:30:25.091Z,1.30
2018-01-07T18:35:27.903Z,1.20
2018-01-07T18:40:31.042Z,1.00
2018-01-07T18:45:33.912Z,1.00
2018-01-07T18:50:37.065Z,0.90
2018-01-07T20:29:12.410Z,0.70
2018-01-07T20:34:15.689Z,0.20
2018-01-07T20:39:19.530Z,0.20
2018-01-07T20:44:22.221Z,0.30
2018-01-07T20:49:25.670Z,0.20
2018-01-07T20:59:56.111Z,0.20
2018-01-07T21:04:58.873Z,0.10
2018-01-07T21:10:01.662Z,0.10
2018-01-07T21:15:04.378Z,0.00
2018-01-07T21:20:08.175Z,0.00
2018-01-07T21:25:11.059Z,0.00
2018-01-07T21:30:14.684Z,0.00
2018-01-07T21:35:18.755Z,0.00
2018-01-07T21:40:22.642Z,0.00
2018-01-07T21:45:25.472Z,0.00
2018-01-07T21:50:28.358Z,0.00
2018-01-07T21:55:31.402Z,0.00
2018-01-07T22:06:25.094Z,0.00
2018-01-07T22:11:28.660Z,-0.10
2018-01-07T22:16:31.454Z,0.00
2018-01-07T22:21:34.347Z,0.00
2018-01-07T22:26:37.077Z,0.00
2018-01-07T22:31:40.555Z,0.00
2018-01-07T22:36:43.450Z,0.00
2018-01-07T22:41:46.604Z,-0.10
2018-01-07T22:46:49.362Z,-0.10
2018-01-07T22:51:53.084Z,-0.20
2018-01-07T22:56:55.917Z,-0.10
2018-01-07T23:01:59.369Z,-0.20
2018-01-07T23:07:02.142Z,-0.30
2018-01-07T23:12:06.093Z,-0.30
2018-01-07T23:17:08.834Z,-0.30
2018-01-07T23:22:11.950Z,-0.30
2018-01-07T23:27:14.650Z,-0.30
2018-01-07T23:32:17.576Z,-0.40
2018-01-07T23:37:20.355Z,-0.50
2018-01-07T23:42:24.080Z,-0.40
2018-01-07T23:47:26.793Z,-0.40
2018-01-07T23:52:30.332Z,-0.40
2018-01-07T23:57:32.964Z,-0.40
